Decoded Metar for LEAB (ALBACETE in SPAIN) (IATA:ABC) | Meteo·Mobile Aviation Weather
aviador You're here:

LEAB Decoded Metar

ALBACETE in SPAIN
Report Time2020-02-22 22:00:00
UTC Time2020-02-22 22:07:03
Flight Rules vfr VFR
Wind160° at 06 kt
W.Decomp.*RWY 09: 2.0 kt HW 5.7 kt RCW
Visibility9999 m
Phenomena:N/A
Clouds:N/A
Expected CloudBase > 2,800 ft AGL from Temp-Dew spread
CeilingNone
Temp06°C (ISA -4)
Dew Point-1°C (61% RH)
AAT1.7°C
QNH1034 hPa
Density Alt1,158 ft
Elevation2,310 ft
Report Wrong Elevation
Raw Report
METAR LEAB 222200Z 16006KT CAVOK 06/M01 Q1034 NOSIG=

Extra information for LEAB:More info

Metar Taf Metar & Taf Last 4 Metars F.Rules Stats Wind Profile Meteogram Temp Stats Airport Information Weather charts Add Link Nearby VenuesMetar ALERT Operation Metar Decoded Social comments